createdAt,value
2023-04-22T00:02:06.526Z,1.70
2023-04-22T00:04:34.234Z,2.08
2023-04-22T00:07:01.446Z,1.90
2023-04-22T00:09:28.063Z,3.30
2023-04-22T00:11:54.757Z,1.60
2023-04-22T00:14:21.602Z,1.73
2023-04-22T00:16:48.160Z,1.65
2023-04-22T00:19:14.691Z,1.88
2023-04-22T00:21:41.149Z,1.80
2023-04-22T00:24:07.847Z,1.80
2023-04-22T00:26:34.436Z,1.67
2023-04-22T00:29:01.045Z,1.70
2023-04-22T00:31:27.860Z,2.55
2023-04-22T00:33:54.677Z,1.50
2023-04-22T00:36:21.224Z,1.83
2023-04-22T00:38:52.330Z,1.80
2023-04-22T00:41:18.984Z,1.48
2023-04-22T00:43:45.583Z,1.70
2023-04-22T00:46:12.635Z,2.33
2023-04-22T00:48:39.363Z,1.83
2023-04-22T00:51:06.162Z,1.90
2023-04-22T00:53:33.100Z,2.03
2023-04-22T00:55:59.774Z,1.95
2023-04-22T00:58:28.872Z,1.85
2023-04-22T01:00:55.856Z,2.05
2023-04-22T01:03:24.430Z,1.85
2023-04-22T01:05:51.423Z,1.65
2023-04-22T01:08:18.052Z,1.70
2023-04-22T01:10:44.607Z,2.00
2023-04-22T01:13:11.151Z,1.70
2023-04-22T01:15:38.109Z,1.85
2023-04-22T01:18:05.462Z,2.00
2023-04-22T01:20:32.115Z,2.08
2023-04-22T01:23:04.204Z,1.50
2023-04-22T01:25:31.060Z,1.75
2023-04-22T01:27:58.320Z,1.65
2023-04-22T01:30:25.169Z,1.40
2023-04-22T01:32:51.950Z,2.17
2023-04-22T01:35:18.546Z,2.00
2023-04-22T01:37:45.161Z,2.28
2023-04-22T01:40:13.808Z,2.92
2023-04-22T01:42:40.306Z,1.73
2023-04-22T01:45:07.646Z,1.73
2023-04-22T01:47:34.405Z,2.55
2023-04-22T01:50:00.920Z,1.65
2023-04-22T01:52:27.759Z,1.70
2023-04-22T01:54:55.059Z,1.98
2023-04-22T01:57:21.608Z,2.03
2023-04-22T01:59:48.115Z,2.10
2023-04-22T02:02:14.744Z,2.67
2023-04-22T02:04:41.319Z,2.05
2023-04-22T02:07:08.025Z,2.05
2023-04-22T02:09:35.062Z,2.42
2023-04-22T02:12:01.764Z,2.13
2023-04-22T02:14:28.405Z,1.75
2023-04-22T02:16:54.933Z,1.38
2023-04-22T02:19:21.559Z,3.25
2023-04-22T02:21:48.051Z,1.90
2023-04-22T02:24:14.725Z,2.00
2023-04-22T02:26:41.563Z,1.73
2023-04-22T02:29:08.078Z,1.77
2023-04-22T02:31:34.698Z,1.50
2023-04-22T02:34:01.267Z,1.73
2023-04-22T02:36:28.806Z,2.05
2023-04-22T02:38:55.399Z,2.78
2023-04-22T02:41:22.070Z,1.63
2023-04-22T02:43:48.654Z,1.60
2023-04-22T02:46:18.508Z,2.40
2023-04-22T02:48:45.037Z,3.55
2023-04-22T02:51:11.839Z,2.22
2023-04-22T02:53:38.459Z,1.75
2023-04-22T02:56:05.716Z,2.45
2023-04-22T02:58:32.276Z,2.53
2023-04-22T03:00:58.869Z,2.20
2023-04-22T03:03:26.019Z,2.13
2023-04-22T03:05:52.973Z,1.73
2023-04-22T03:08:20.550Z,2.25
2023-04-22T03:10:47.287Z,1.65
2023-04-22T03:13:14.500Z,1.60
2023-04-22T03:15:41.665Z,2.13
2023-04-22T03:18:08.572Z,1.88
2023-04-22T03:20:35.858Z,1.88
2023-04-22T03:23:02.468Z,2.50
2023-04-22T03:25:29.010Z,1.70
2023-04-22T03:27:55.671Z,2.08
2023-04-22T03:30:22.281Z,2.40
2023-04-22T03:32:49.071Z,1.67
2023-04-22T03:35:15.769Z,2.33
2023-04-22T03:37:42.474Z,1.77
2023-04-22T03:40:09.793Z,1.52
2023-04-22T03:42:36.402Z,2.08
2023-04-22T03:45:03.211Z,2.05
2023-04-22T03:47:29.745Z,1.65
2023-04-22T03:49:56.975Z,1.92
2023-04-22T03:52:23.525Z,1.98
2023-04-22T03:54:50.232Z,1.90
2023-04-22T03:57:16.754Z,2.00
2023-04-22T03:59:43.289Z,1.92
2023-04-22T04:02:10.056Z,2.83
2023-04-22T04:04:37.078Z,2.30
2023-04-22T04:07:03.983Z,1.92
2023-04-22T04:09:30.617Z,1.88
2023-04-22T04:11:58.255Z,1.98
2023-04-22T04:14:24.939Z,1.75
2023-04-22T04:16:51.547Z,2.35
2023-04-22T04:19:20.182Z,1.77
2023-04-22T04:21:47.048Z,1.63
2023-04-22T04:24:13.580Z,1.52
2023-04-22T04:26:40.087Z,1.73
2023-04-22T04:29:06.586Z,2.03
2023-04-22T04:31:34.053Z,1.75
2023-04-22T04:34:00.722Z,1.60
2023-04-22T04:36:29.145Z,1.65
2023-04-22T04:38:56.420Z,1.73
2023-04-22T04:41:23.486Z,1.73
2023-04-22T04:43:50.374Z,1.90
2023-04-22T04:46:16.865Z,1.73
2023-04-22T04:48:43.921Z,1.80
2023-04-22T04:51:11.668Z,2.22
2023-04-22T04:53:38.425Z,2.08
2023-04-22T04:56:05.099Z,2.25
2023-04-22T04:58:31.586Z,2.00
2023-04-22T05:00:58.072Z,2.00
2023-04-22T05:03:24.852Z,2.10
2023-04-22T05:05:51.682Z,2.03
2023-04-22T05:08:18.258Z,1.73
2023-04-22T05:10:45.195Z,1.60
2023-04-22T05:13:11.814Z,1.63
2023-04-22T05:15:38.353Z,1.45
2023-04-22T05:18:05.500Z,1.80
2023-04-22T05:20:34.574Z,1.90
2023-04-22T05:23:02.538Z,1.70
2023-04-22T05:25:29.165Z,1.77
2023-04-22T05:27:55.721Z,1.60
2023-04-22T05:30:22.252Z,1.50
2023-04-22T05:32:48.792Z,1.83
2023-04-22T05:35:15.390Z,1.70
2023-04-22T05:37:41.964Z,1.67
2023-04-22T05:40:09.080Z,2.00
2023-04-22T05:42:35.614Z,1.92
2023-04-22T05:45:02.159Z,1.70
2023-04-22T05:47:29.717Z,1.65
2023-04-22T05:49:56.434Z,1.70
2023-04-22T05:52:23.340Z,1.63
2023-04-22T05:54:49.898Z,1.65
2023-04-22T05:57:16.544Z,1.58
2023-04-22T05:59:43.321Z,1.75
2023-04-22T06:02:10.117Z,1.85
2023-04-22T06:04:37.724Z,2.08
2023-04-22T06:07:04.806Z,1.90
2023-04-22T06:09:31.305Z,1.80
2023-04-22T06:11:58.211Z,1.65
2023-04-22T06:14:24.900Z,1.58
2023-04-22T06:16:53.114Z,1.70
2023-04-22T06:19:19.886Z,1.92
2023-04-22T06:21:46.435Z,1.80
2023-04-22T06:24:12.976Z,1.83
2023-04-22T06:26:39.614Z,1.63
2023-04-22T06:29:06.214Z,2.03
2023-04-22T06:31:33.012Z,2.03
2023-04-22T06:33:59.963Z,2.05
2023-04-22T06:36:30.261Z,1.73
2023-04-22T06:38:57.438Z,1.75
2023-04-22T06:41:24.004Z,1.58
2023-04-22T06:43:50.802Z,1.70
2023-04-22T06:46:17.818Z,1.60
2023-04-22T06:48:44.369Z,1.88
2023-04-22T06:51:10.892Z,1.70
2023-04-22T06:53:37.419Z,1.67
2023-04-22T06:56:04.753Z,1.90
2023-04-22T06:58:31.225Z,1.85
2023-04-22T07:00:57.786Z,1.70
2023-04-22T07:03:24.765Z,2.10
2023-04-22T07:05:51.512Z,1.80
2023-04-22T07:08:18.302Z,1.90
2023-04-22T07:10:44.873Z,1.73
2023-04-22T07:13:11.392Z,1.88
2023-04-22T07:15:37.940Z,1.73
2023-04-22T07:18:04.722Z,2.67
2023-04-22T07:20:31.478Z,1.83
2023-04-22T07:22:58.072Z,2.55
2023-04-22T07:25:24.577Z,1.92
2023-04-22T07:27:51.228Z,1.67
2023-04-22T07:30:17.870Z,1.90
2023-04-22T07:32:44.800Z,1.90
2023-04-22T07:35:12.567Z,2.72
2023-04-22T07:37:39.239Z,1.88
2023-04-22T07:40:11.947Z,2.15
2023-04-22T07:42:41.748Z,2.28
2023-04-22T07:45:08.721Z,1.87
2023-04-22T07:47:35.570Z,2.10
2023-04-22T07:50:02.190Z,1.95
2023-04-22T07:52:30.012Z,2.28
2023-04-22T07:54:56.901Z,2.08
2023-04-22T07:57:24.009Z,2.00
2023-04-22T07:59:51.801Z,2.40
2023-04-22T08:02:18.476Z,1.92
2023-04-22T08:04:45.184Z,2.15
2023-04-22T08:09:41.424Z,2.15
2023-04-22T08:12:08.072Z,2.00
2023-04-22T08:14:34.567Z,2.50
2023-04-22T08:17:01.113Z,2.00
2023-04-22T08:19:27.697Z,2.25
2023-04-22T08:21:54.377Z,2.85
2023-04-22T08:24:21.256Z,4.10
2023-04-22T08:26:50.832Z,2.20
2023-04-22T08:29:17.460Z,1.93
2023-04-22T08:31:44.147Z,2.47
2023-04-22T08:34:11.385Z,2.00
2023-04-22T08:36:37.954Z,2.33
2023-04-22T08:39:04.578Z,2.00
2023-04-22T08:41:34.708Z,1.80
2023-04-22T08:44:01.529Z,2.08
2023-04-22T08:46:28.893Z,2.05
2023-04-22T08:48:58.786Z,2.72
2023-04-22T08:51:26.180Z,2.45
2023-04-22T08:53:52.767Z,2.15
2023-04-22T08:56:20.792Z,2.60
2023-04-22T08:58:48.477Z,2.00
2023-04-22T09:01:15.804Z,2.25
2023-04-22T09:03:42.755Z,2.38
2023-04-22T09:06:11.005Z,4.25
2023-04-22T09:08:38.422Z,2.42
2023-04-22T09:11:05.320Z,4.30
2023-04-22T09:13:31.898Z,3.20
2023-04-22T09:16:00.010Z,2.70
2023-04-22T09:18:26.699Z,4.50
2023-04-22T09:20:56.083Z,5.30
2023-04-22T09:23:22.812Z,7.88
2023-04-22T09:25:50.274Z,9.80
2023-04-22T09:28:19.803Z,10.27
2023-04-22T09:30:46.878Z,9.15
2023-04-22T09:33:13.874Z,12.68
2023-04-22T09:35:42.375Z,10.85
2023-04-22T09:38:11.093Z,10.25
2023-04-22T09:40:43.602Z,11.65
2023-04-22T09:43:11.599Z,12.95
2023-04-22T09:45:41.120Z,10.80
2023-04-22T09:48:11.859Z,7.57
2023-04-22T09:50:41.071Z,10.25
2023-04-22T09:53:09.789Z,9.15
2023-04-22T09:55:40.417Z,5.78
2023-04-22T09:58:12.737Z,7.68
2023-04-22T10:00:52.146Z,6.72
2023-04-22T10:03:19.170Z,5.78
2023-04-22T10:05:46.320Z,5.07
2023-04-22T10:08:14.877Z,5.32
2023-04-22T10:10:42.225Z,6.47
2023-04-22T10:13:08.794Z,5.07
2023-04-22T10:15:39.362Z,6.55
2023-04-22T10:20:38.045Z,5.35
2023-04-22T10:23:06.667Z,7.00
2023-04-22T10:25:33.253Z,12.65
2023-04-22T10:28:08.382Z,9.52
2023-04-22T10:30:38.348Z,10.82
2023-04-22T10:33:31.651Z,20.33
2023-04-22T10:36:15.156Z,13.63
2023-04-22T10:38:42.526Z,12.00
2023-04-22T10:41:15.430Z,10.05
2023-04-22T10:43:49.257Z,14.00
2023-04-22T10:46:35.056Z,10.63
2023-04-22T10:49:13.984Z,11.80
2023-04-22T10:51:45.062Z,11.65
2023-04-22T10:54:36.678Z,10.73
2023-04-22T10:57:19.166Z,9.40
2023-04-22T10:59:52.374Z,6.53
2023-04-22T11:02:20.923Z,7.97
2023-04-22T11:04:48.213Z,7.10
2023-04-22T11:07:22.725Z,8.48
2023-04-22T11:10:07.721Z,6.43
2023-04-22T11:12:38.494Z,5.43
2023-04-22T11:15:12.358Z,5.97
2023-04-22T11:17:42.235Z,5.65
2023-04-22T11:20:10.068Z,6.78
2023-04-22T11:22:38.177Z,4.72
2023-04-22T11:25:06.301Z,6.22
2023-04-22T11:27:33.071Z,7.75
2023-04-22T11:30:12.360Z,3.92
2023-04-22T11:32:41.230Z,5.57
2023-04-22T11:35:10.565Z,6.10
2023-04-22T11:37:58.470Z,5.60
2023-04-22T11:40:38.356Z,3.65
2023-04-22T11:43:07.909Z,5.63
2023-04-22T11:45:36.639Z,5.45
2023-04-22T11:48:05.715Z,4.50
2023-04-22T11:50:40.676Z,3.67
2023-04-22T11:53:18.404Z,3.95
2023-04-22T11:55:46.713Z,5.50
2023-04-22T11:58:24.374Z,3.78
2023-04-22T12:00:52.480Z,3.63
2023-04-22T12:03:25.034Z,3.35
2023-04-22T12:05:51.590Z,5.30
2023-04-22T12:08:45.097Z,5.93
2023-04-22T12:11:12.189Z,3.70
2023-04-22T12:13:38.677Z,3.65
2023-04-22T12:16:12.303Z,3.60
2023-04-22T12:18:40.714Z,4.70
2023-04-22T12:21:07.238Z,4.35
2023-04-22T12:23:48.550Z,4.70
2023-04-22T12:26:16.747Z,3.70
2023-04-22T12:28:44.580Z,3.45
2023-04-22T12:31:12.326Z,3.55
2023-04-22T12:33:39.481Z,2.83
2023-04-22T12:36:06.836Z,3.22
2023-04-22T12:38:34.142Z,3.25
2023-04-22T12:41:01.927Z,3.50
2023-04-22T12:43:28.545Z,3.40
2023-04-22T12:45:55.158Z,3.65
2023-04-22T12:48:21.780Z,3.75
2023-04-22T12:50:48.405Z,4.13
2023-04-22T12:53:16.643Z,2.80
2023-04-22T12:55:45.905Z,3.15
2023-04-22T12:58:12.814Z,2.95
2023-04-22T13:00:39.567Z,3.63
2023-04-22T13:03:06.831Z,3.78
2023-04-22T13:05:33.641Z,3.70
2023-04-22T13:08:06.989Z,2.40
2023-04-22T13:10:34.576Z,2.45
2023-04-22T13:13:16.689Z,3.85
2023-04-22T13:15:45.050Z,2.33
2023-04-22T13:18:11.656Z,3.50
2023-04-22T13:20:38.329Z,3.25
2023-04-22T13:23:05.043Z,2.30
2023-04-22T13:25:32.069Z,2.40
2023-04-22T13:27:58.674Z,2.97
2023-04-22T13:30:25.187Z,2.65
2023-04-22T13:32:51.940Z,2.95
2023-04-22T13:35:18.812Z,3.45
2023-04-22T13:37:46.736Z,2.53
2023-04-22T13:40:13.412Z,2.67
2023-04-22T13:42:40.165Z,4.15
2023-04-22T13:45:07.542Z,2.50
2023-04-22T13:47:34.182Z,2.40
2023-04-22T13:50:02.100Z,2.88
2023-04-22T13:52:29.210Z,3.58
2023-04-22T13:54:55.811Z,4.50
2023-04-22T13:57:23.356Z,4.10
2023-04-22T13:59:50.554Z,3.17
2023-04-22T14:02:17.837Z,3.83
2023-04-22T14:04:44.585Z,4.57
2023-04-22T14:07:12.061Z,3.13
2023-04-22T14:09:39.070Z,3.05
2023-04-22T14:12:07.830Z,2.85
2023-04-22T14:14:34.600Z,3.30
2023-04-22T14:17:01.356Z,3.10
2023-04-22T14:19:30.287Z,3.38
2023-04-22T14:21:57.062Z,3.10
2023-04-22T14:24:24.458Z,2.92
2023-04-22T14:26:52.362Z,3.15
2023-04-22T14:29:19.011Z,3.00
2023-04-22T14:31:45.704Z,3.90
2023-04-22T14:34:12.273Z,3.58
2023-04-22T14:36:39.040Z,3.50
2023-04-22T14:39:05.627Z,3.90
2023-04-22T14:41:32.188Z,3.42
2023-04-22T14:43:58.873Z,3.10
2023-04-22T14:46:25.966Z,3.20
2023-04-22T14:48:52.578Z,4.28
2023-04-22T14:51:19.597Z,5.28
2023-04-22T14:53:46.498Z,2.90
2023-04-22T14:56:13.166Z,4.70
2023-04-22T14:58:39.704Z,5.70
2023-04-22T15:01:08.968Z,4.72
2023-04-22T15:03:36.102Z,5.35
2023-04-22T15:06:03.052Z,5.47
2023-04-22T15:08:29.724Z,7.18
2023-04-22T15:10:57.113Z,6.53
2023-04-22T15:13:23.671Z,7.93
2023-04-22T15:15:50.420Z,7.45
2023-04-22T15:18:17.214Z,8.15
2023-04-22T15:20:43.949Z,7.45
2023-04-22T15:23:10.827Z,5.63
2023-04-22T15:25:37.906Z,8.25
2023-04-22T15:28:04.533Z,9.90
2023-04-22T15:30:31.141Z,5.55
2023-04-22T15:32:57.714Z,5.72
2023-04-22T15:35:24.539Z,7.60
2023-04-22T15:37:51.197Z,7.93
2023-04-22T15:40:17.699Z,6.30
2023-04-22T15:42:44.325Z,8.50
2023-04-22T15:45:11.377Z,5.90
2023-04-22T15:47:38.059Z,6.63
2023-04-22T15:50:09.254Z,5.85
2023-04-22T15:52:37.832Z,6.20
2023-04-22T15:55:08.275Z,6.15
2023-04-22T15:57:35.512Z,5.30
2023-04-22T16:00:12.648Z,6.28
2023-04-22T16:02:40.878Z,4.90
2023-04-22T16:05:08.045Z,5.68
2023-04-22T16:07:35.124Z,5.45
2023-04-22T16:10:02.062Z,5.60
2023-04-22T16:12:29.060Z,5.20
2023-04-22T16:14:55.616Z,4.72
2023-04-22T16:17:22.289Z,4.57
2023-04-22T16:19:49.161Z,4.97
2023-04-22T16:22:15.717Z,5.97
2023-04-22T16:24:44.248Z,4.28
2023-04-22T16:27:16.380Z,4.68
2023-04-22T16:29:43.738Z,4.35
2023-04-22T16:32:10.818Z,5.03
2023-04-22T16:34:38.270Z,3.83
2023-04-22T16:37:05.456Z,3.97
2023-04-22T16:39:32.392Z,4.75
2023-04-22T16:41:59.120Z,4.25
2023-04-22T16:44:25.705Z,3.70
2023-04-22T16:46:52.531Z,3.92
2023-04-22T16:49:19.215Z,5.22
2023-04-22T16:51:45.798Z,3.40
2023-04-22T16:54:12.313Z,3.53
2023-04-22T16:56:38.887Z,4.70
2023-04-22T16:59:05.479Z,5.43
2023-04-22T17:01:32.115Z,3.75
2023-04-22T17:03:58.911Z,5.72
2023-04-22T17:06:27.465Z,3.90
2023-04-22T17:08:54.220Z,4.78
2023-04-22T17:11:20.774Z,4.20
2023-04-22T17:13:47.740Z,5.65
2023-04-22T17:16:14.355Z,4.53
2023-04-22T17:18:40.854Z,3.80
2023-04-22T17:21:07.418Z,3.70
2023-04-22T17:23:35.730Z,4.07
2023-04-22T17:26:02.560Z,4.05
2023-04-22T17:28:29.090Z,3.92
2023-04-22T17:30:55.726Z,3.80
2023-04-22T17:33:22.341Z,3.67
2023-04-22T17:35:49.010Z,4.18
2023-04-22T17:38:15.646Z,3.47
2023-04-22T17:40:43.767Z,3.92
2023-04-22T17:43:10.541Z,4.47
2023-04-22T17:45:37.088Z,3.80
2023-04-22T17:48:03.813Z,4.22
2023-04-22T17:50:30.466Z,3.88
2023-04-22T17:52:58.110Z,4.45
2023-04-22T17:55:24.692Z,3.53
2023-04-22T17:57:51.189Z,3.40
2023-04-22T18:00:18.821Z,3.50
2023-04-22T18:02:45.674Z,3.75
2023-04-22T18:05:12.565Z,3.47
2023-04-22T18:07:39.963Z,3.40
2023-04-22T18:10:08.018Z,3.42
2023-04-22T18:12:35.603Z,3.40
2023-04-22T18:15:02.204Z,3.08
2023-04-22T18:17:28.855Z,3.90
2023-04-22T18:20:02.699Z,3.55
2023-04-22T18:22:29.827Z,3.35
2023-04-22T18:24:57.384Z,3.90
2023-04-22T18:27:24.026Z,3.03
2023-04-22T18:29:51.562Z,3.30
2023-04-22T18:32:18.533Z,3.20
2023-04-22T18:34:45.078Z,3.47
2023-04-22T18:37:11.872Z,3.03
2023-04-22T18:39:39.725Z,3.10
2023-04-22T18:42:06.342Z,3.03
2023-04-22T18:44:32.964Z,3.30
2023-04-22T18:46:59.553Z,3.30
2023-04-22T18:49:26.372Z,3.00
2023-04-22T18:51:52.901Z,3.40
2023-04-22T18:54:19.500Z,2.90
2023-04-22T18:56:49.086Z,3.38
2023-04-22T18:59:15.780Z,3.10
2023-04-22T19:01:42.393Z,3.50
2023-04-22T19:04:09.127Z,3.10
2023-04-22T19:06:35.714Z,3.42
2023-04-22T19:09:04.784Z,3.30
2023-04-22T19:11:31.351Z,3.03
2023-04-22T19:13:58.002Z,3.40
2023-04-22T19:16:26.326Z,3.30
2023-04-22T19:18:53.382Z,3.13
2023-04-22T19:21:20.283Z,2.90
2023-04-22T19:23:47.203Z,3.00
2023-04-22T19:26:13.855Z,3.03
2023-04-22T19:28:46.999Z,2.78
2023-04-22T19:31:14.780Z,3.10
2023-04-22T19:33:41.597Z,3.22
2023-04-22T19:36:08.353Z,3.20
2023-04-22T19:38:35.404Z,3.33
2023-04-22T19:41:02.362Z,3.13
2023-04-22T19:43:29.260Z,3.70
2023-04-22T19:45:56.292Z,3.50
2023-04-22T19:48:24.078Z,3.75
2023-04-22T19:50:50.956Z,3.75
2023-04-22T19:53:18.701Z,3.22
2023-04-22T19:55:46.657Z,4.22
2023-04-22T19:58:14.448Z,3.30
2023-04-22T20:00:42.595Z,3.33
2023-04-22T20:03:10.244Z,3.50
2023-04-22T20:05:37.410Z,3.83
2023-04-22T20:08:07.534Z,3.67
2023-04-22T20:10:34.254Z,3.80
2023-04-22T20:13:01.104Z,3.88
2023-04-22T20:15:27.793Z,3.33
2023-04-22T20:17:55.205Z,4.05
2023-04-22T20:20:22.021Z,3.65
2023-04-22T20:22:50.248Z,3.85
2023-04-22T20:25:17.367Z,3.40
2023-04-22T20:27:44.137Z,3.63
2023-04-22T20:30:11.922Z,3.38
2023-04-22T20:32:41.048Z,4.82
2023-04-22T20:35:11.423Z,3.25
2023-04-22T20:37:39.788Z,3.25
2023-04-22T20:40:08.333Z,3.72
2023-04-22T20:42:36.880Z,3.03
2023-04-22T20:45:07.197Z,3.95
2023-04-22T20:47:33.857Z,4.72
2023-04-22T20:50:00.671Z,4.40
2023-04-22T20:52:27.583Z,4.45
2023-04-22T20:54:56.973Z,4.18
2023-04-22T20:57:23.783Z,3.35
2023-04-22T20:59:50.709Z,3.17
2023-04-22T21:02:18.431Z,2.95
2023-04-22T21:04:45.500Z,3.17
2023-04-22T21:07:14.170Z,3.40
2023-04-22T21:09:41.547Z,3.42
2023-04-22T21:12:10.487Z,3.60
2023-04-22T21:14:40.916Z,3.42
2023-04-22T21:17:25.500Z,4.00
2023-04-22T21:19:55.532Z,3.88
2023-04-22T21:22:24.704Z,3.63
2023-04-22T21:24:52.453Z,3.80
2023-04-22T21:27:20.063Z,3.28
2023-04-22T21:29:47.730Z,3.28
2023-04-22T21:32:14.964Z,3.50
2023-04-22T21:34:42.185Z,3.72
2023-04-22T21:37:09.326Z,3.92
2023-04-22T21:39:36.414Z,3.30
2023-04-22T21:42:07.405Z,3.60
2023-04-22T21:44:35.654Z,3.85
2023-04-22T21:47:02.790Z,4.47
2023-04-22T21:49:29.378Z,3.70
2023-04-22T21:51:56.202Z,3.60
2023-04-22T21:54:23.242Z,2.83
2023-04-22T21:56:50.784Z,3.78
2023-04-22T21:59:17.483Z,3.72
2023-04-22T22:01:44.036Z,3.50
2023-04-22T22:04:11.929Z,3.20
2023-04-22T22:06:41.304Z,3.40
2023-04-22T22:09:07.915Z,3.50
2023-04-22T22:11:34.622Z,3.25
2023-04-22T22:14:01.414Z,3.63
2023-04-22T22:16:28.249Z,3.00
2023-04-22T22:18:55.830Z,3.28
2023-04-22T22:21:22.376Z,3.10
2023-04-22T22:23:48.880Z,3.10
2023-04-22T22:26:15.953Z,3.10
2023-04-22T22:28:42.469Z,3.08
2023-04-22T22:31:09.001Z,3.08
2023-04-22T22:33:35.743Z,3.78
2023-04-22T22:36:02.369Z,3.25
2023-04-22T22:38:29.051Z,2.97
2023-04-22T22:40:55.596Z,3.15
2023-04-22T22:43:22.134Z,3.70
2023-04-22T22:45:48.963Z,3.50
2023-04-22T22:48:15.561Z,3.25
2023-04-22T22:50:42.161Z,3.80
2023-04-22T22:53:08.781Z,2.95
2023-04-22T22:55:35.481Z,3.65
2023-04-22T22:58:02.007Z,3.45
2023-04-22T23:00:28.646Z,3.85
2023-04-22T23:02:55.770Z,3.38
2023-04-22T23:05:22.461Z,3.53
2023-04-22T23:07:48.977Z,3.10
2023-04-22T23:10:15.824Z,3.42
2023-04-22T23:12:42.598Z,3.38
2023-04-22T23:15:09.739Z,3.22
2023-04-22T23:17:36.788Z,3.78
2023-04-22T23:20:04.329Z,3.50
2023-04-22T23:22:32.226Z,3.58
2023-04-22T23:24:59.172Z,3.28
2023-04-22T23:27:26.033Z,3.67
2023-04-22T23:29:52.928Z,3.58
2023-04-22T23:32:21.286Z,3.60
2023-04-22T23:34:49.632Z,3.38
2023-04-22T23:37:19.025Z,3.53
2023-04-22T23:39:45.706Z,4.32
2023-04-22T23:42:12.383Z,3.55
2023-04-22T23:44:39.091Z,3.55
2023-04-22T23:47:06.381Z,3.90
2023-04-22T23:49:32.911Z,3.58
2023-04-22T23:51:59.596Z,3.58
2023-04-22T23:54:26.825Z,3.85
2023-04-22T23:56:53.810Z,3.28
2023-04-22T23:59:20.653Z,3.25
